Time;durP1;ratioP1;P1;durP2;ratioP2;P2;SDS_P1;SDS_P2;PMS_P1;PMS_P2;Temp;Humidity;BMP_temperature;BMP_pressure;BME280_temperature;BME280_humidity;BME280_pressure;Samples;Min_cycle;Max_cycle;Signal;HPM_P1;HPM_P2
2021/03/11 00:00:47;;;;;;;43.78;17.67;;;;;;;6.46;100.00;99906.81;4984380;28;20038;-74
2021/03/11 00:03:18;;;;;;;45.30;18.75;;;;;;;6.46;100.00;99901.47;4993989;28;20093;-74
2021/03/11 00:05:43;;;;;;;47.80;19.33;;;;;;;6.45;100.00;99912.47;4993563;28;20495;-74
2021/03/11 00:08:09;;;;;;;49.38;19.33;;;;;;;6.45;100.00;99918.63;4987632;28;20046;-75
2021/03/11 00:10:36;;;;;;;53.92;20.70;;;;;;;6.59;100.00;99896.78;4982767;28;20034;-74
2021/03/11 00:13:02;;;;;;;53.63;20.73;;;;;;;6.80;100.00;99882.00;4993454;28;20472;-74
2021/03/11 00:15:31;;;;;;;53.55;20.75;;;;;;;6.55;100.00;99880.66;4988693;28;20031;-74
2021/03/11 00:17:56;;;;;;;50.83;20.73;;;;;;;6.82;100.00;99876.31;4985497;28;20038;-74
2021/03/11 00:20:25;;;;;;;53.70;19.65;;;;;;;6.77;100.00;99882.72;4984756;28;20044;-74
2021/03/11 00:22:51;;;;;;;53.15;20.63;;;;;;;6.62;100.00;99875.47;4993426;28;20069;-74
2021/03/11 00:25:19;;;;;;;51.65;21.42;;;;;;;6.75;100.00;99857.41;4990302;28;20065;-74
2021/03/11 00:27:45;;;;;;;50.75;21.50;;;;;;;6.68;100.00;99844.66;4991510;28;20814;-74
2021/03/11 00:30:12;;;;;;;52.20;21.73;;;;;;;6.61;100.00;99844.50;4988659;28;20027;-74
2021/03/11 00:32:38;;;;;;;51.72;21.00;;;;;;;6.56;100.00;99835.97;4992987;28;20437;-74
2021/03/11 00:35:04;;;;;;;52.95;21.42;;;;;;;6.78;100.00;99822.72;4990766;28;20042;-74
2021/03/11 00:37:30;;;;;;;58.55;21.92;;;;;;;6.99;100.00;99823.16;4988194;28;20519;-74
2021/03/11 00:39:55;;;;;;;55.33;21.25;;;;;;;6.80;100.00;99817.78;4986209;28;20077;-74
2021/03/11 00:42:21;;;;;;;56.85;22.67;;;;;;;6.68;100.00;99799.19;4991506;28;20537;-74
2021/03/11 00:44:46;;;;;;;64.05;23.30;;;;;;;6.77;100.00;99805.13;4991458;28;20041;-74
2021/03/11 00:47:12;;;;;;;51.42;20.27;;;;;;;6.49;100.00;99801.03;4990034;28;20038;-73
2021/03/11 00:49:38;;;;;;;53.78;21.38;;;;;;;6.52;100.00;99784.31;4988780;28;20030;-73
2021/03/11 00:52:05;;;;;;;58.35;23.10;;;;;;;6.47;100.00;99790.69;4997515;28;20406;-74
2021/03/11 00:54:31;;;;;;;59.00;21.95;;;;;;;6.25;100.00;99776.06;4992863;28;20121;-74
2021/03/11 00:56:57;;;;;;;53.45;22.45;;;;;;;6.50;100.00;99776.66;4992004;28;20583;-74
2021/03/11 00:59:22;;;;;;;56.17;21.48;;;;;;;6.64;100.00;99768.91;4990605;28;20642;-74
2021/03/11 01:01:49;;;;;;;62.13;23.70;;;;;;;6.66;100.00;99755.97;4991509;28;20073;-74
2021/03/11 01:04:15;;;;;;;55.92;22.02;;;;;;;6.75;100.00;99753.88;4988680;28;20034;-74
2021/03/11 01:06:40;;;;;;;57.33;21.95;;;;;;;6.60;100.00;99729.84;4987415;28;20742;-74
2021/03/11 01:09:08;;;;;;;61.60;23.33;;;;;;;6.48;100.00;99738.00;4988794;28;20409;-74
2021/03/11 01:11:34;;;;;;;57.50;23.45;;;;;;;6.55;100.00;99735.47;4989901;28;20034;-74
2021/03/11 01:14:00;;;;;;;60.40;24.15;;;;;;;6.53;100.00;99721.66;4992449;28;20478;-74
2021/03/11 01:16:26;;;;;;;61.95;23.92;;;;;;;6.47;100.00;99731.88;4971558;28;20042;-74
2021/03/11 01:18:51;;;;;;;65.88;23.33;;;;;;;6.57;100.00;99719.84;4991492;28;20030;-74
2021/03/11 01:21:16;;;;;;;62.88;23.73;;;;;;;6.69;100.00;99699.09;4997793;28;20076;-74
2021/03/11 01:23:42;;;;;;;59.58;24.08;;;;;;;6.66;100.00;99699.03;4992303;28;20080;-74
2021/03/11 01:26:08;;;;;;;66.70;23.90;;;;;;;6.76;100.00;99680.50;4989808;28;20062;-74
2021/03/11 01:28:33;;;;;;;61.90;23.52;;;;;;;6.56;100.00;99668.28;4992217;28;20045;-74
2021/03/11 01:30:59;;;;;;;66.65;23.17;;;;;;;6.55;100.00;99664.03;4993332;28;20037;-74
2021/03/11 01:33:24;;;;;;;56.95;21.77;;;;;;;6.75;100.00;99657.56;4988258;28;20042;-74
2021/03/11 01:35:50;;;;;;;54.70;23.13;;;;;;;6.61;100.00;99646.59;4996384;28;20053;-74
2021/03/11 01:38:16;;;;;;;56.47;21.58;;;;;;;6.73;100.00;99632.28;4989838;28;20033;-74
2021/03/11 01:40:41;;;;;;;48.13;19.42;;;;;;;6.49;100.00;99633.34;4985083;28;20046;-75
2021/03/11 01:43:07;;;;;;;49.67;19.08;;;;;;;6.38;100.00;99616.34;4993673;28;20042;-74
2021/03/11 01:45:32;;;;;;;52.33;20.95;;;;;;;6.31;100.00;99600.91;4982915;28;20030;-74
2021/03/11 01:47:58;;;;;;;49.70;20.63;;;;;;;6.39;100.00;99599.16;4992142;28;20077;-74
2021/03/11 01:50:23;;;;;;;47.00;19.48;;;;;;;6.28;100.00;99592.84;4985882;28;20105;-75
2021/03/11 01:52:50;;;;;;;52.40;20.98;;;;;;;6.48;100.00;99588.25;4996197;28;20042;-74
2021/03/11 01:55:16;;;;;;;46.92;19.42;;;;;;;6.33;100.00;99587.97;4994335;28;20141;-75
2021/03/11 01:57:42;;;;;;;47.80;20.05;;;;;;;6.55;100.00;99583.03;4989299;28;20042;-74
2021/03/11 02:00:11;;;;;;;45.13;18.58;;;;;;;6.41;100.00;99588.88;4977900;28;20042;-74
2021/03/11 02:02:43;;;;;;;46.03;18.77;;;;;;;6.30;100.00;99588.69;4990368;28;20044;-74
2021/03/11 02:05:11;;;;;;;51.15;19.92;;;;;;;6.45;100.00;99584.38;4990937;28;20064;-74
2021/03/11 02:07:37;;;;;;;47.50;19.75;;;;;;;6.43;100.00;99586.63;4991538;28;20450;-75
2021/03/11 02:10:04;;;;;;;54.78;19.63;;;;;;;6.54;100.00;99582.28;4987547;28;20032;-75
2021/03/11 02:12:36;;;;;;;44.08;17.92;;;;;;;6.56;100.00;99566.66;4991397;28;20434;-74
2021/03/11 02:15:13;;;;;;;44.03;18.50;;;;;;;6.35;100.00;99552.84;4991306;28;20109;-74
2021/03/11 02:17:48;;;;;;;45.72;19.10;;;;;;;6.42;100.00;99553.00;4981988;28;20034;-74
2021/03/11 02:20:45;;;;;;;39.50;17.42;;;;;;;6.39;100.00;99541.13;4980279;28;20089;-74
2021/03/11 02:23:29;;;;;;;41.67;18.63;;;;;;;6.33;100.00;99528.38;4995376;28;20062;-74
2021/03/11 02:26:01;;;;;;;40.30;17.58;;;;;;;6.30;100.00;99508.50;4974367;28;20137;-74
2021/03/11 02:29:01;;;;;;;48.38;18.55;;;;;;;6.46;100.00;99515.63;4989775;28;20042;-74
2021/03/11 02:31:29;;;;;;;41.15;17.58;;;;;;;6.39;100.00;99492.22;4988539;28;20030;-74
2021/03/11 02:33:57;;;;;;;38.88;17.42;;;;;;;6.31;100.00;99487.88;4970735;28;20545;-74
2021/03/11 02:36:25;;;;;;;36.50;17.15;;;;;;;6.39;100.00;99482.31;4986694;28;20048;-74
2021/03/11 02:38:53;;;;;;;46.17;18.38;;;;;;;6.45;100.00;99468.63;4988757;28;20494;-74
2021/03/11 02:41:21;;;;;;;44.60;18.67;;;;;;;6.19;100.00;99461.31;4995887;28;20027;-74
2021/03/11 02:43:50;;;;;;;49.15;18.90;;;;;;;6.10;100.00;99450.06;4987443;23;20047;-77
2021/03/11 02:46:17;;;;;;;47.42;19.17;;;;;;;6.22;100.00;99452.59;4991473;28;20069;-75
2021/03/11 02:48:45;;;;;;;50.70;20.35;;;;;;;6.20;100.00;99434.22;4992643;28;20038;-79
2021/03/11 02:51:11;;;;;;;52.95;19.88;;;;;;;5.96;100.00;99423.09;4980921;28;20041;-78
2021/03/11 02:53:38;;;;;;;43.72;18.55;;;;;;;6.05;100.00;99421.75;4976720;28;20031;-78
2021/03/11 02:56:05;;;;;;;48.53;19.65;;;;;;;6.10;100.00;99402.75;4977963;28;20031;-77
2021/03/11 02:58:31;;;;;;;49.35;19.45;;;;;;;6.16;100.00;99390.63;4981082;28;20066;-77
2021/03/11 03:00:59;;;;;;;47.50;20.30;;;;;;;6.16;100.00;99384.50;4989248;28;20031;-79
2021/03/11 03:03:26;;;;;;;50.60;19.42;;;;;;;6.25;100.00;99371.69;4979925;28;20030;-79
2021/03/11 03:05:53;;;;;;;49.70;20.38;;;;;;;6.54;100.00;99372.91;4980931;28;20055;-78
2021/03/11 03:08:19;;;;;;;49.65;20.40;;;;;;;6.20;100.00;99367.41;4981321;28;20026;-76
2021/03/11 03:10:47;;;;;;;49.08;19.20;;;;;;;6.27;100.00;99356.09;4994902;28;20041;-78
2021/03/11 03:13:15;;;;;;;45.85;18.65;;;;;;;6.27;100.00;99340.03;4983647;28;20034;-79
2021/03/11 03:15:42;;;;;;;50.03;20.50;;;;;;;6.59;100.00;99346.63;4982600;28;20027;-79
2021/03/11 03:18:10;;;;;;;51.95;19.65;;;;;;;6.52;100.00;99343.09;4980694;28;20507;-79
2021/03/11 03:20:36;;;;;;;49.17;20.38;;;;;;;6.63;100.00;99318.03;4992796;28;20046;-78
2021/03/11 03:23:06;;;;;;;48.33;19.50;;;;;;;6.27;100.00;99306.06;5002850;28;20027;-79
2021/03/11 03:25:32;;;;;;;45.28;18.95;;;;;;;6.18;100.00;99318.13;4979610;28;20041;-77
2021/03/11 03:27:58;;;;;;;43.95;18.63;;;;;;;5.91;100.00;99309.28;4981674;28;20034;-79
2021/03/11 03:30:25;;;;;;;44.08;17.75;;;;;;;6.21;100.00;99296.78;4995131;28;20520;-75
2021/03/11 03:32:51;;;;;;;45.85;19.05;;;;;;;6.37;100.00;99293.97;4980319;28;20042;-76
2021/03/11 03:35:18;;;;;;;48.50;20.13;;;;;;;6.29;100.00;99295.03;4974143;28;20111;-79
2021/03/11 03:37:44;;;;;;;51.03;19.30;;;;;;;6.55;100.00;99278.97;4980962;28;20042;-79
2021/03/11 03:40:13;;;;;;;45.65;19.42;;;;;;;6.28;100.00;99275.53;4979965;28;20484;-76
2021/03/11 03:42:41;;;;;;;47.40;18.73;;;;;;;6.57;100.00;99270.56;4973452;28;20368;-78
2021/03/11 03:45:12;;;;;;;50.10;18.30;;;;;;;6.43;100.00;99260.44;4981049;28;20027;-78
2021/03/11 03:47:42;;;;;;;46.08;19.00;;;;;;;6.41;100.00;99261.97;4976444;28;20082;-78
2021/03/11 03:50:09;;;;;;;52.45;19.45;;;;;;;6.53;100.00;99241.13;4998201;28;20086;-78
2021/03/11 03:52:37;;;;;;;47.20;18.92;;;;;;;6.43;100.00;99239.06;4981493;28;20088;-78
2021/03/11 03:55:05;;;;;;;45.30;18.08;;;;;;;6.53;100.00;99235.00;4985716;28;20034;-78
2021/03/11 03:57:31;;;;;;;46.70;18.25;;;;;;;6.65;100.00;99234.78;4978977;28;20038;-80
2021/03/11 03:59:58;;;;;;;44.38;18.35;;;;;;;6.57;100.00;99225.88;4973605;28;20117;-78
2021/03/11 04:02:25;;;;;;;42.72;17.02;;;;;;;6.37;100.00;99230.59;4980979;28;20041;-79
2021/03/11 04:04:52;;;;;;;43.97;17.33;;;;;;;6.37;100.00;99224.47;4970816;28;20039;-77
2021/03/11 04:07:22;;;;;;;42.20;17.52;;;;;;;6.46;100.00;99216.19;4974840;28;20031;-77
2021/03/11 04:09:48;;;;;;;40.58;18.23;;;;;;;6.46;100.00;99211.63;4980628;28;20038;-77
2021/03/11 04:12:16;;;;;;;43.80;17.58;;;;;;;6.55;100.00;99214.78;4977856;28;20076;-79
2021/03/11 04:14:44;;;;;;;41.50;17.90;;;;;;;6.41;100.00;99225.28;4976175;28;20562;-77
2021/03/11 04:17:10;;;;;;;43.08;16.67;;;;;;;6.46;100.00;99216.19;4968637;28;20034;-77
2021/03/11 04:19:37;;;;;;;49.20;19.70;;;;;;;6.49;100.00;99208.22;4972862;28;20030;-78
2021/03/11 04:22:24;;;;;;;45.53;18.08;;;;;;;6.53;100.00;99201.00;4977587;28;20073;-77
2021/03/11 04:24:50;;;;;;;42.33;19.42;;;;;;;6.69;100.00;99204.28;4953497;29;20043;-78
2021/03/11 04:27:15;;;;;;;38.75;18.33;;;;;;;6.64;100.00;99199.22;4956910;29;20555;-77
2021/03/11 04:29:41;;;;;;;43.63;18.17;;;;;;;6.54;100.00;99188.41;4955468;29;20070;-78
2021/03/11 04:32:09;;;;;;;40.88;17.85;;;;;;;6.66;100.00;99172.13;4938515;29;20055;-78
2021/03/11 04:34:34;;;;;;;38.60;16.13;;;;;;;6.28;100.00;99173.97;4956574;29;20043;-78
2021/03/11 04:37:01;;;;;;;40.15;17.55;;;;;;;6.49;100.00;99162.75;4940296;29;20616;-78
2021/03/11 04:39:27;;;;;;;41.40;18.52;;;;;;;6.66;100.00;99167.53;4955296;29;20047;-78
2021/03/11 04:41:53;;;;;;;44.58;18.60;;;;;;;6.79;100.00;99160.06;4955956;29;20047;-78
2021/03/11 04:44:23;;;;;;;41.33;18.95;;;;;;;6.65;100.00;99147.28;4956182;29;20122;-77
2021/03/11 04:46:49;;;;;;;46.80;20.35;;;;;;;6.72;100.00;99150.03;4954712;29;20471;-77
2021/03/11 04:49:15;;;;;;;43.40;17.75;;;;;;;6.70;100.00;99130.91;4955123;29;20062;-75
2021/03/11 04:51:42;;;;;;;40.53;18.75;;;;;;;6.75;100.00;99149.31;4953192;29;20039;-77
2021/03/11 04:54:08;;;;;;;46.40;19.48;;;;;;;6.63;100.00;99143.44;4955567;29;20519;-77
2021/03/11 04:56:35;;;;;;;37.70;17.00;;;;;;;6.57;100.00;99137.66;4953248;29;20110;-78
2021/03/11 04:59:00;;;;;;;42.17;18.30;;;;;;;6.58;100.00;99133.81;4947570;29;20118;-78
2021/03/11 05:01:32;;;;;;;42.97;17.90;;;;;;;6.66;100.00;99130.09;4957686;28;20539;-77
2021/03/11 05:04:01;;;;;;;42.38;18.48;;;;;;;6.81;100.00;99126.47;4976100;28;20035;-77
2021/03/11 05:06:27;;;;;;;36.17;15.93;;;;;;;6.66;100.00;99118.66;4969861;28;20065;-78
2021/03/11 05:08:52;;;;;;;44.17;19.10;;;;;;;6.62;100.00;99107.88;4972826;28;20038;-78
2021/03/11 05:11:18;;;;;;;40.20;18.17;;;;;;;6.82;100.00;99113.81;4971514;28;20031;-78
2021/03/11 05:13:43;;;;;;;40.83;18.15;;;;;;;6.79;100.00;99110.00;4969639;28;20038;-76
2021/03/11 05:16:09;;;;;;;43.38;18.98;;;;;;;6.65;100.00;99099.16;4993756;28;20534;-78
2021/03/11 05:18:35;;;;;;;44.80;18.75;;;;;;;6.65;100.00;99101.06;4975924;28;20121;-78
2021/03/11 05:21:01;;;;;;;47.35;19.42;;;;;;;6.83;100.00;99096.66;4977557;28;20038;-77
2021/03/11 05:23:26;;;;;;;44.20;18.20;;;;;;;6.66;100.00;99083.88;4975593;28;20027;-75
2021/03/11 05:25:53;;;;;;;41.28;18.00;;;;;;;6.63;100.00;99081.94;4973488;28;20031;-78
2021/03/11 05:28:20;;;;;;;42.80;18.13;;;;;;;6.91;100.00;99077.59;4978463;28;20034;-77
2021/03/11 05:30:45;;;;;;;43.10;18.33;;;;;;;6.87;100.00;99074.13;4968109;28;20066;-75
2021/03/11 05:33:11;;;;;;;42.50;18.25;;;;;;;6.78;100.00;99062.19;4976971;28;20035;-77
2021/03/11 05:35:37;;;;;;;38.63;17.55;;;;;;;6.79;100.00;99071.78;4978784;28;20027;-78
2021/03/11 05:38:02;;;;;;;38.28;17.05;;;;;;;7.07;100.00;99062.09;4975402;28;20030;-76
2021/03/11 05:40:28;;;;;;;40.80;18.55;;;;;;;6.64;100.00;99057.47;4976903;28;20528;-79
2021/03/11 05:42:57;;;;;;;38.75;17.08;;;;;;;6.65;100.00;99045.66;4976885;28;20027;-78
2021/03/11 05:45:25;;;;;;;38.88;15.75;;;;;;;6.84;100.00;99050.81;4976850;28;20035;-78
2021/03/11 05:47:51;;;;;;;42.65;18.88;;;;;;;6.71;100.00;99033.50;4974160;28;20054;-75
2021/03/11 05:50:17;;;;;;;41.92;18.80;;;;;;;6.78;100.00;99035.44;4976700;28;20035;-78
2021/03/11 05:52:44;;;;;;;37.80;17.05;;;;;;;6.84;100.00;99047.34;4975645;28;20542;-77
2021/03/11 05:55:09;;;;;;;43.28;18.30;;;;;;;7.10;100.00;99031.88;4989892;28;20114;-78
2021/03/11 05:57:42;;;;;;;42.78;18.20;;;;;;;7.06;100.00;99033.81;4970541;28;20070;-74
2021/03/11 06:00:09;;;;;;;39.10;16.92;;;;;;;7.04;100.00;99028.03;4973542;28;20034;-78
2021/03/11 06:02:35;;;;;;;47.03;18.33;;;;;;;7.16;100.00;99024.31;4965475;28;20043;-76
2021/03/11 06:05:01;;;;;;;44.22;18.67;;;;;;;6.92;100.00;99033.69;4973445;28;20038;-76
2021/03/11 06:07:27;;;;;;;37.10;17.42;;;;;;;6.84;100.00;99025.94;4991110;28;20038;-78
2021/03/11 06:09:55;;;;;;;38.60;17.67;;;;;;;7.04;100.00;99027.28;4981488;28;20039;-78
2021/03/11 06:12:23;;;;;;;39.38;18.08;;;;;;;6.83;100.00;99043.91;4972932;28;20094;-76
2021/03/11 06:14:54;;;;;;;37.40;17.17;;;;;;;6.85;100.00;99004.16;4971146;28;20110;-75
2021/03/11 06:17:21;;;;;;;39.17;17.27;;;;;;;7.11;100.00;98990.63;4973888;28;20043;-77
2021/03/11 06:19:47;;;;;;;39.80;17.38;;;;;;;6.84;100.00;98986.59;4969362;28;20049;-76
2021/03/11 06:22:12;;;;;;;38.45;17.20;;;;;;;6.74;100.00;98970.47;4975444;28;20035;-77
2021/03/11 06:24:38;;;;;;;37.70;16.90;;;;;;;6.95;100.00;98957.25;4967775;28;20045;-77
2021/03/11 06:27:03;;;;;;;37.90;16.63;;;;;;;7.04;100.00;98963.03;4971190;28;20081;-76
2021/03/11 06:29:40;;;;;;;39.00;17.58;;;;;;;7.14;100.00;98957.75;4970928;28;20146;-77
2021/03/11 06:32:09;;;;;;;39.75;18.05;;;;;;;7.24;100.00;98942.88;4972037;28;20069;-76
2021/03/11 06:34:42;;;;;;;39.17;17.75;;;;;;;7.29;100.00;98945.22;4968169;28;20038;-78
2021/03/11 06:37:07;;;;;;;33.20;16.33;;;;;;;7.02;100.00;98931.31;4973043;28;20062;-77
2021/03/11 06:39:35;;;;;;;36.42;16.27;;;;;;;7.10;100.00;98945.50;4971694;28;20073;-77
2021/03/11 06:42:01;;;;;;;32.85;16.25;;;;;;;6.94;100.00;98924.38;4969922;28;20499;-77
2021/03/11 06:44:34;;;;;;;39.92;17.48;;;;;;;6.74;100.00;98907.03;4968243;28;20073;-77
2021/03/11 06:47:10;;;;;;;34.40;15.57;;;;;;;7.02;100.00;98923.28;4969070;28;20434;-77
2021/03/11 06:49:56;;;;;;;32.45;15.60;;;;;;;6.94;100.00;98918.25;4964397;28;21170;-76
2021/03/11 06:52:21;;;;;;;33.17;15.90;;;;;;;6.99;100.00;98891.91;4967930;28;20411;-77
2021/03/11 06:54:53;;;;;;;35.03;15.68;;;;;;;6.97;100.00;98867.44;4960675;28;20031;-77
2021/03/11 06:57:39;;;;;;;32.58;15.52;;;;;;;6.84;100.00;98857.44;4968015;28;20058;-77
2021/03/11 07:00:14;;;;;;;28.33;14.68;;;;;;;7.04;100.00;98872.06;4974343;28;20375;-75
2021/03/11 07:02:58;;;;;;;33.38;14.82;;;;;;;7.04;100.00;98888.91;4962661;28;20037;-77
2021/03/11 07:05:28;;;;;;;29.83;14.20;;;;;;;7.16;100.00;98877.84;4961451;28;20079;-75
2021/03/11 07:08:14;;;;;;;33.17;14.82;;;;;;;7.23;100.00;98877.91;4970148;28;20428;-75
2021/03/11 07:10:41;;;;;;;29.92;14.65;;;;;;;7.09;100.00;98875.16;4963924;28;21085;-75
2021/03/11 07:13:07;;;;;;;26.58;13.73;;;;;;;6.82;100.00;98873.06;4986874;28;20031;-75
2021/03/11 07:15:34;;;;;;;30.63;14.05;;;;;;;7.09;100.00;98858.31;4968115;28;20039;-77
2021/03/11 07:18:01;;;;;;;28.42;13.40;;;;;;;7.21;100.00;98850.75;4953328;28;20073;-75
2021/03/11 07:20:28;;;;;;;29.67;13.85;;;;;;;7.25;100.00;98838.13;4963323;28;20107;-77
2021/03/11 07:23:12;;;;;;;26.67;12.82;;;;;;;7.25;100.00;98840.81;4970452;28;20039;-77
2021/03/11 07:25:39;;;;;;;27.00;12.45;;;;;;;7.21;100.00;98842.72;4966654;28;20031;-77
2021/03/11 07:28:07;;;;;;;27.60;13.90;;;;;;;7.27;100.00;98843.09;4973272;28;20065;-77
2021/03/11 07:30:48;;;;;;;27.08;13.02;;;;;;;7.36;100.00;98834.72;4983135;28;20038;-77
2021/03/11 07:33:15;;;;;;;26.17;12.20;;;;;;;7.45;100.00;98829.78;4971152;28;20046;-77
2021/03/11 07:35:43;;;;;;;25.63;12.43;;;;;;;7.58;100.00;98830.97;4981219;28;20042;-77
2021/03/11 07:38:13;;;;;;;27.27;12.65;;;;;;;7.64;100.00;98843.59;4965449;28;20057;-77
2021/03/11 07:40:38;;;;;;;27.17;13.10;;;;;;;7.40;100.00;98825.56;4962680;28;20029;-76
2021/03/11 07:43:05;;;;;;;25.30;11.90;;;;;;;7.51;100.00;98844.34;4970022;28;20476;-77
2021/03/11 07:45:33;;;;;;;25.90;11.80;;;;;;;7.71;100.00;98834.81;4970279;28;20427;-77
2021/03/11 07:48:01;;;;;;;28.90;12.88;;;;;;;7.86;100.00;98820.28;4981610;28;20038;-77
2021/03/11 07:50:27;;;;;;;26.75;12.27;;;;;;;7.65;100.00;98820.25;4968466;28;20031;-77
2021/03/11 07:52:54;;;;;;;26.88;12.35;;;;;;;7.35;100.00;98817.91;4971772;28;20665;-77
2021/03/11 07:55:20;;;;;;;24.70;12.30;;;;;;;7.64;100.00;98814.16;4967737;28;20048;-75
2021/03/11 07:57:47;;;;;;;24.02;11.68;;;;;;;7.81;100.00;98799.22;4962022;28;20039;-76
2021/03/11 08:00:15;;;;;;;25.38;12.82;;;;;;;7.97;100.00;98786.22;4970211;28;20518;-76
2021/03/11 08:02:52;;;;;;;28.45;12.32;;;;;;;8.03;100.00;98793.50;4972138;28;20034;-77
2021/03/11 08:05:30;;;;;;;26.10;11.90;;;;;;;8.00;100.00;98782.78;4969577;28;20045;-76
2021/03/11 08:08:20;;;;;;;24.13;11.20;;;;;;;8.03;100.00;98782.03;4967490;28;20045;-76
2021/03/11 08:10:55;;;;;;;24.20;11.82;;;;;;;7.83;100.00;98776.28;4973248;28;20043;-72
2021/03/11 08:13:23;;;;;;;23.00;10.88;;;;;;;8.00;100.00;98778.19;4966655;28;20039;-73
2021/03/11 08:15:52;;;;;;;24.63;11.73;;;;;;;8.08;100.00;98766.31;4985180;28;20034;-77
2021/03/11 08:18:33;;;;;;;25.83;12.63;;;;;;;8.11;100.00;98770.13;4970017;28;20504;-77
2021/03/11 08:21:05;;;;;;;24.13;12.47;;;;;;;8.23;100.00;98769.72;4962923;28;20039;-76
2021/03/11 08:23:32;;;;;;;25.90;12.35;;;;;;;8.09;100.00;98753.69;4968814;28;20027;-77
2021/03/11 08:25:59;;;;;;;22.55;11.40;;;;;;;8.24;100.00;98749.84;4963869;28;20033;-77
2021/03/11 08:28:30;;;;;;;25.15;11.75;;;;;;;8.25;100.00;98746.00;4970180;28;20125;-77
2021/03/11 08:30:55;;;;;;;26.08;12.70;;;;;;;8.09;100.00;98742.97;4984253;28;20039;-76
2021/03/11 08:33:21;;;;;;;23.70;12.30;;;;;;;8.17;100.00;98741.78;4967356;28;20046;-76
2021/03/11 08:35:51;;;;;;;22.13;11.25;;;;;;;8.17;100.00;98739.09;4968964;28;20026;-77
2021/03/11 08:38:20;;;;;;;21.33;11.95;;;;;;;8.19;100.00;98737.56;4970072;28;20030;-76
2021/03/11 08:41:07;;;;;;;25.60;12.00;;;;;;;8.17;100.00;98733.75;4964998;28;20062;-77
2021/03/11 08:43:38;;;;;;;21.85;11.77;;;;;;;8.27;100.00;98724.94;4962737;28;20040;-77
2021/03/11 08:46:17;;;;;;;24.58;12.13;;;;;;;8.12;100.00;98718.06;4969766;28;20030;-76
2021/03/11 08:48:51;;;;;;;24.10;11.63;;;;;;;8.35;100.00;98702.31;4966832;28;20034;-77
2021/03/11 08:51:23;;;;;;;22.67;11.07;;;;;;;8.44;100.00;98705.34;4969232;28;20077;-77
2021/03/11 08:53:52;;;;;;;22.77;11.55;;;;;;;8.53;100.00;98710.31;4970339;28;20558;-77
2021/03/11 08:56:18;;;;;;;24.90;12.10;;;;;;;8.46;100.00;98681.59;4964406;28;20216;-76
2021/03/11 08:58:52;;;;;;;24.38;11.90;;;;;;;8.67;100.00;98691.50;4968684;28;20499;-74
2021/03/11 09:01:41;;;;;;;24.42;11.65;;;;;;;8.62;100.00;98676.56;4966669;28;20089;-76
2021/03/11 09:04:32;;;;;;;26.38;12.68;;;;;;;8.59;100.00;98666.63;4959095;28;20050;-77
2021/03/11 09:06:59;;;;;;;19.77;11.32;;;;;;;8.70;100.00;98655.81;4973424;28;20046;-76
2021/03/11 09:09:46;;;;;;;22.85;11.13;;;;;;;8.79;100.00;98672.25;4971018;28;20034;-77
2021/03/11 09:12:29;;;;;;;20.02;10.98;;;;;;;8.99;100.00;98682.13;4972193;28;20057;-77
2021/03/11 09:14:57;;;;;;;21.15;10.98;;;;;;;9.00;100.00;98662.16;4962823;28;20093;-75
2021/03/11 09:17:28;;;;;;;22.40;11.27;;;;;;;9.13;100.00;98664.41;4975418;28;20038;-77
2021/03/11 09:19:54;;;;;;;20.52;10.77;;;;;;;9.02;100.00;98664.44;4981136;23;20713;-76
2021/03/11 09:22:32;;;;;;;20.73;10.77;;;;;;;9.18;100.00;98666.66;4986280;28;20070;-76
2021/03/11 09:24:58;;;;;;;19.65;9.75;;;;;;;9.18;100.00;98656.69;4987942;28;20121;-76
2021/03/11 09:27:29;;;;;;;21.55;10.02;;;;;;;9.30;100.00;98652.75;4989828;28;20505;-78
2021/03/11 09:30:00;;;;;;;19.52;10.65;;;;;;;9.28;100.00;98634.38;4988909;28;20026;-77
2021/03/11 09:32:28;;;;;;;17.63;9.68;;;;;;;9.09;100.00;98632.22;4982784;28;20258;-77
2021/03/11 09:34:56;;;;;;;18.90;10.35;;;;;;;8.96;100.00;98639.94;4990212;28;20494;-77
2021/03/11 09:37:48;;;;;;;20.00;9.60;;;;;;;9.25;100.00;98651.28;4979564;28;20036;-76
2021/03/11 09:40:40;;;;;;;18.23;10.05;;;;;;;9.37;100.00;98653.47;4986688;28;20047;-77
2021/03/11 09:43:11;;;;;;;;;;;;;;;9.40;100.00;98639.25;4985878;28;20058;-77
2021/03/11 09:45:47;;;;;;;20.00;9.00;;;;;;;9.45;100.00;98632.69;4986955;28;19918;-76
2021/03/11 09:48:21;;;;;;;17.67;9.23;;;;;;;9.59;100.00;98619.91;4988067;28;20117;-77
2021/03/11 09:51:06;;;;;;;17.63;9.73;;;;;;;9.90;100.00;98629.59;4984172;28;20038;-76
2021/03/11 09:53:36;;;;;;;18.80;9.52;;;;;;;10.28;100.00;98606.13;4987029;28;20046;-76
2021/03/11 09:56:04;;;;;;;15.10;8.38;;;;;;;10.48;100.00;98607.03;4991522;28;20034;-76
2021/03/11 09:58:32;;;;;;;12.82;7.65;;;;;;;10.46;100.00;98608.59;4989399;28;20034;-76
2021/03/11 10:01:00;;;;;;;13.13;8.05;;;;;;;10.70;100.00;98602.16;4978535;28;20034;-76
2021/03/11 10:03:28;;;;;;;16.75;7.82;;;;;;;11.27;100.00;98580.47;4983258;28;20121;-76
2021/03/11 10:05:59;;;;;;;14.52;7.75;;;;;;;11.33;100.00;98566.16;4984840;28;20522;-76
2021/03/11 10:08:31;;;;;;;12.95;6.93;;;;;;;11.44;100.00;98558.63;4981075;28;20038;-76
2021/03/11 10:11:01;;;;;;;14.05;6.97;;;;;;;11.66;100.00;98559.03;4985877;28;20117;-76
2021/03/11 10:13:39;;;;;;;11.20;6.75;;;;;;;11.59;100.00;98537.59;4987312;28;20080;-77
2021/03/11 10:16:06;;;;;;;11.00;6.80;;;;;;;11.70;100.00;98544.34;4987777;28;20034;-77
2021/03/11 10:18:33;;;;;;;12.80;6.70;;;;;;;12.08;100.00;98552.81;4988608;28;20042;-77
2021/03/11 10:21:05;;;;;;;9.18;5.85;;;;;;;12.40;100.00;98546.78;4988805;28;20031;-77
2021/03/11 10:23:31;;;;;;;12.10;6.25;;;;;;;12.23;100.00;98535.16;4986012;28;20432;-77
2021/03/11 10:26:18;;;;;;;10.00;5.90;;;;;;;12.00;100.00;98518.34;4987898;28;20108;-77
2021/03/11 10:28:45;;;;;;;10.90;6.10;;;;;;;12.11;100.00;98518.88;4984847;28;20041;-77
2021/03/11 10:31:12;;;;;;;9.63;5.65;;;;;;;12.09;100.00;98505.81;5001100;28;20436;-77
2021/03/11 10:33:39;;;;;;;11.05;5.93;;;;;;;12.06;100.00;98497.78;4984528;28;20038;-77
2021/03/11 10:36:23;;;;;;;9.82;5.80;;;;;;;11.98;100.00;98485.63;4988888;28;20041;-75
2021/03/11 10:39:10;;;;;;;8.80;5.22;;;;;;;11.85;100.00;98476.63;5004878;28;20030;-75
2021/03/11 10:41:38;;;;;;;9.55;4.97;;;;;;;11.75;100.00;98472.97;4984384;28;20165;-74
2021/03/11 10:44:10;;;;;;;13.18;5.57;;;;;;;11.76;100.00;98466.41;4988333;28;20030;-76
2021/03/11 10:46:36;;;;;;;9.30;4.88;;;;;;;11.49;100.00;98465.75;4988993;28;20041;-76
2021/03/11 10:49:01;;;;;;;9.93;5.10;;;;;;;11.50;100.00;98469.97;4987690;28;20398;-76
2021/03/11 10:51:29;;;;;;;6.47;4.25;;;;;;;11.42;99.95;98463.22;4991393;28;20407;-76
2021/03/11 10:53:55;;;;;;;10.02;4.65;;;;;;;11.60;100.00;98460.91;4989237;28;20088;-76
2021/03/11 10:56:20;;;;;;;8.82;4.70;;;;;;;11.68;100.00;98467.72;4984501;28;20042;-76
2021/03/11 10:58:47;;;;;;;7.63;4.90;;;;;;;11.67;100.00;98463.53;4986223;28;20031;-76
2021/03/11 11:01:18;;;;;;;8.50;4.70;;;;;;;11.84;100.00;98453.53;4983840;28;20521;-76
2021/03/11 11:03:45;;;;;;;6.10;3.90;;;;;;;11.68;100.00;98457.72;4985146;28;20092;-76
2021/03/11 11:06:11;;;;;;;5.97;3.80;;;;;;;11.94;99.73;98441.78;4995567;28;20035;-76
2021/03/11 11:08:42;;;;;;;7.30;3.92;;;;;;;11.85;99.81;98450.41;4981836;28;20504;-75
2021/03/11 11:11:07;;;;;;;7.25;4.28;;;;;;;11.87;100.00;98439.22;4988725;28;20406;-76
2021/03/11 11:13:33;;;;;;;7.57;4.20;;;;;;;11.84;99.99;98458.94;4988064;28;20030;-76
2021/03/11 11:15:58;;;;;;;7.32;4.13;;;;;;;11.82;100.00;98448.56;4990538;28;20061;-76
2021/03/11 11:18:24;;;;;;;3.92;2.88;;;;;;;11.61;99.64;98430.09;4990532;28;20113;-76
2021/03/11 11:20:51;;;;;;;4.97;2.50;;;;;;;11.30;100.00;98418.00;4992252;28;20379;-76
2021/03/11 11:23:16;;;;;;;4.40;2.55;;;;;;;11.19;100.00;98418.19;4994527;28;20037;-76
2021/03/11 11:25:42;;;;;;;4.40;2.40;;;;;;;11.19;99.73;98409.38;4990036;28;20018;-76
2021/03/11 11:28:07;;;;;;;5.68;1.85;;;;;;;10.97;99.32;98432.47;4992525;28;20038;-75